Página principal
METAR-TAF:

METAR-TAF

Aeroportos :

Dublin, Irlanda

Aeroporto de Dublin

latitude: 53-26N, longitude: 006-15W, altura: 68 m

Observação actual do tempo

O boletim foi feito há 33 minutos, às 11:30 UTC
Vento 12 kt de sudeste
Temperatura 3°C
Humidade 65%
Pressão 1021 hPa
Visibilidade 10 km ou mais
Poucas nuvensa uma altura de 1700 ft
Nuvens fragmentadasa uma altura de 2200 ft

METAR: EIDW 241130Z 14012KT 9999 FEW017 BKN022 03/M03 Q1021 NOSIG

Hora: 12:03 (12:03 UTC)

Previsão

O boletim foi feito há 1 hora e 3 minutos, às 11:00 UTC
Previsão válida de 24 às 12 UTC a 25 às 12 UTC
Vento 14 kt de su-sudeste
Visibilidade 10 km ou mais
Nuvens dispersasa uma altura de 1800 ft
Nuvens fragmentadasa uma altura de 2500 ft
Tornando-se
de 24 às 12 UTC a 24 às 15 UTC
Vento 9 kt de es-sudeste

TAF: EIDW 241100Z 2412/2512 15014KT 9999 SCT018 BKN025 BECMG 2412/2415 12009KT

Observações e previsões do tempo de mais de 4000 aeroportos (mensagens METAR e TAF).

As estações disponíveis são os pontos amarelos e vermelhos sobre o mapa.

Mova o rato sobre o mapa para ver o nome da estação.

Depois clique no ponto para visualizar as observações e previsões meteorológicas.

Para alterar o mapa : clique nos botões verdes com uma cruz preta para aumentar o zoom; no botão verde com uma pitada de zoom; ou nas setas verdes para mapas adjacentes.


METAR-TAF: